Aérodrome :
LOGIN :

S'inscrire | Disclaimer

   EN    FR    IT 

 










Légende :    VFR   VFR Marginal   IFR   IFR Intensif   IFR Très Intensif
Visi : 
Plafond : 
>= 8 km
>= 3000ft
5 à 8 km
1000 à 3000 ft
1500m à 5 km
500 à 1000 ft
800 à 1500m
200 à 500 ft
< 800m
< 200 ft
Symboles :   Orages  Brouillard  Fortes neiges  Fortes précipitations  Vent > 20 kt
SIGMETs :   Divers  Orages  Givrage  Turbulence  Onde Orograph.  Cendres Volcan.







- Altitude de l'aérodrome : 56 ft
- Code IATA : BZR
- Voir les cartes d'approche


LFMU - Beziers / Vias

DERNIER METAR :
  • 160900Z AUTO 33015KT CAVOK 24/08 Q1019 TEMPO 32015G25KT

METARs EXPIRÉS :
  • 160830Z AUTO 32016KT CAVOK 23/08 Q1020 BECMG 28006KT
  • 160800Z AUTO 33013KT CAVOK 22/10 Q1020 NOSIG
  • 160730Z AUTO 33016KT CAVOK 21/09 Q1020 BECMG 28006KT
  • 160700Z AUTO 33013KT CAVOK 20/10 Q1020 NOSIG
  • 160630Z AUTO 30009KT CAVOK 19/11 Q1020 NOSIG
  • 160600Z AUTO 29007KT CAVOK 17/11 Q1020 NOSIG

TAF TAF LFMU
Valide du 16 à 09h jusqu'au 17 à 09h UTC


160800Z 1609/1709 32010KT CAVOK
PROB30
TEMPO 1609/1615 32015G25KT
BECMG 1621/1623 VRB02KT
ATIS : +33 4 67 90 88 88
Pas de NOTAMs connus pour ce terrain.



MET'MAP, la Météo Aéronautique d'un coup d'oeil ! - Copyright ORBIFLY Décembre 2007 - Disclaimer

ORBIFLY MET'MAP TEAM :

Programmation & Développement : Alexandra Zaïnal
Conception & Développement : Baudouin d'Aumeries
Co-Programmation & Développement : Marc-Olivier Méhu
Soutien technique & logistique : Manuel Goepfert

Contact : metmap@orbifly.com




SOURCES & CREDITS :

   NOAA